Time;durP1;ratioP1;P1;durP2;ratioP2;P2;SDS_P1;SDS_P2;PMS_P1;PMS_P2;Temp;Humidity;BMP_temperature;BMP_pressure;BME280_temperature;BME280_humidity;BME280_pressure;Samples;Min_cycle;Max_cycle;Signal;HPM_P1;HPM_P2
2022/04/27 00:00:18;;;;;;;3.25;2.03;;;;;;;;;;5062997;28;20043;-49
2022/04/27 00:02:44;;;;;;;3.03;2.00;;;;;;;;;;5059970;28;20047;-52
2022/04/27 00:05:10;;;;;;;2.97;1.92;;;;;;;;;;5066464;28;20086;-49
2022/04/27 00:07:36;;;;;;;3.35;2.03;;;;;;;;;;5069257;28;20024;-51
2022/04/27 00:10:04;;;;;;;4.28;2.35;;;;;;;;;;5087505;28;20085;-48
2022/04/27 00:12:30;;;;;;;4.07;2.10;;;;;;;;;;5072064;28;20046;-48
2022/04/27 00:14:56;;;;;;;3.85;2.45;;;;;;;;;;5058129;28;20017;-50
2022/04/27 00:17:22;;;;;;;3.20;2.00;;;;;;;;;;5059559;28;20021;-52
2022/04/27 00:19:48;;;;;;;3.38;2.00;;;;;;;;;;5059504;28;20032;-47
2022/04/27 00:22:14;;;;;;;4.22;2.15;;;;;;;;;;5066999;28;20111;-47
2022/04/27 00:24:41;;;;;;;3.78;2.28;;;;;;;;;;5079730;28;20024;-50
2022/04/27 00:27:07;;;;;;;3.47;2.20;;;;;;;;;;5071015;28;20024;-48
2022/04/27 00:29:33;;;;;;;4.10;2.22;;;;;;;;;;5081768;28;20036;-48
2022/04/27 00:31:59;;;;;;;5.00;2.67;;;;;;;;;;5066202;28;20102;-51
2022/04/27 00:34:25;;;;;;;3.65;2.17;;;;;;;;;;5057939;28;20500;-50
2022/04/27 00:36:51;;;;;;;4.18;2.45;;;;;;;;;;5071198;28;20025;-53
2022/04/27 00:39:17;;;;;;;3.67;2.30;;;;;;;;;;5058162;28;20531;-47
2022/04/27 00:41:59;;;;;;;3.85;2.30;;;;;;;;;;5077594;28;20027;-48
2022/04/27 00:44:28;;;;;;;3.78;2.40;;;;;;;;;;5075114;28;20032;-49
2022/04/27 00:46:54;;;;;;;3.25;2.65;;;;;;;;;;5072144;28;20036;-49
2022/04/27 00:49:20;;;;;;;4.38;2.72;;;;;;;;;;5072944;28;20024;-48
2022/04/27 00:51:46;;;;;;;4.57;2.50;;;;;;;;;;5080912;28;20446;-49
2022/04/27 00:54:12;;;;;;;4.45;2.58;;;;;;;;;;5087560;28;20026;-49
2022/04/27 00:56:39;;;;;;;2.95;2.55;;;;;;;;;;5063071;28;20021;-51
2022/04/27 00:59:05;;;;;;;3.75;2.50;;;;;;;;;;5062041;28;20039;-52
2022/04/27 01:01:31;;;;;;;4.20;2.53;;;;;;;;;;5073157;28;20036;-57
2022/04/27 01:03:56;;;;;;;3.05;2.42;;;;;;;;;;5067274;28;20028;-58
2022/04/27 01:06:23;;;;;;;6.55;2.90;;;;;;;;;;5084347;28;20104;-57
2022/04/27 01:08:49;;;;;;;4.22;2.60;;;;;;;;;;5076520;28;20028;-56
2022/04/27 01:11:15;;;;;;;4.28;2.50;;;;;;;;;;5072073;28;20036;-57
2022/04/27 01:13:41;;;;;;;3.63;2.38;;;;;;;;;;5073600;28;20369;-57
2022/04/27 01:16:08;;;;;;;5.07;2.97;;;;;;;;;;5070745;28;20087;-57
2022/04/27 01:18:34;;;;;;;3.55;1.83;;;;;;;;;;5073985;28;20396;-56
2022/04/27 01:21:01;;;;;;;5.43;2.70;;;;;;;;;;5080026;28;20070;-57
2022/04/27 01:23:27;;;;;;;5.22;2.65;;;;;;;;;;5060695;28;20033;-56
2022/04/27 01:25:57;;;;;;;4.28;2.88;;;;;;;;;;5071505;28;20069;-57
2022/04/27 01:28:23;;;;;;;4.13;2.65;;;;;;;;;;5090034;28;20058;-57
2022/04/27 01:30:55;;;;;;;3.65;2.45;;;;;;;;;;5084003;28;20521;-57
2022/04/27 01:33:22;;;;;;;8.68;3.47;;;;;;;;;;5079134;28;20025;-57
2022/04/27 01:35:48;;;;;;;5.18;3.17;;;;;;;;;;5055443;28;20376;-56
2022/04/27 01:38:17;;;;;;;3.17;2.38;;;;;;;;;;5078050;28;20035;-57
2022/04/27 01:40:43;;;;;;;4.78;2.90;;;;;;;;;;5074187;28;20476;-57
2022/04/27 01:43:09;;;;;;;3.67;2.70;;;;;;;;;;5076515;28;20036;-57
2022/04/27 01:45:35;;;;;;;5.05;2.83;;;;;;;;;;5059523;28;20550;-57
2022/04/27 01:48:01;;;;;;;5.30;3.00;;;;;;;;;;5064741;28;20052;-57
2022/04/27 01:50:27;;;;;;;4.07;2.75;;;;;;;;;;5060637;28;20028;-57
2022/04/27 01:55:38;;;;;;;4.70;2.67;;;;;;;;;;5061679;28;20044;-57
2022/04/27 01:58:04;;;;;;;3.95;2.55;;;;;;;;;;5057203;28;20669;-56
2022/04/27 02:00:30;;;;;;;4.63;2.75;;;;;;;;;;5070143;28;20074;-57
2022/04/27 02:02:56;;;;;;;8.35;2.90;;;;;;;;;;5063896;28;20025;-56
2022/04/27 02:05:22;;;;;;;3.42;2.72;;;;;;;;;;5066374;28;20019;-56
2022/04/27 02:07:48;;;;;;;3.95;2.90;;;;;;;;;;5083746;28;20102;-57
2022/04/27 02:10:14;;;;;;;4.35;2.97;;;;;;;;;;5092089;28;20047;-57
2022/04/27 02:12:40;;;;;;;6.40;3.05;;;;;;;;;;5066996;28;20396;-58
2022/04/27 02:15:09;;;;;;;7.22;3.00;;;;;;;;;;5063234;28;20041;-57
2022/04/27 02:17:35;;;;;;;5.18;3.08;;;;;;;;;;5076180;28;20028;-57
2022/04/27 02:20:01;;;;;;;5.95;3.60;;;;;;;;;;5084796;28;20022;-57
2022/04/27 02:22:27;;;;;;;5.43;3.38;;;;;;;;;;5088372;28;20032;-56
2022/04/27 02:24:53;;;;;;;4.63;3.30;;;;;;;;;;5075468;28;20077;-57
2022/04/27 02:27:20;;;;;;;6.03;3.08;;;;;;;;;;5073852;28;20037;-57
2022/04/27 02:29:46;;;;;;;6.78;2.92;;;;;;;;;;5083539;28;20109;-56
2022/04/27 02:32:12;;;;;;;5.75;3.47;;;;;;;;;;5070664;28;20063;-57
2022/04/27 02:34:38;;;;;;;6.78;3.25;;;;;;;;;;5074582;28;20032;-55
2022/04/27 02:37:05;;;;;;;5.15;3.53;;;;;;;;;;5081005;28;20021;-57
2022/04/27 02:39:32;;;;;;;4.72;3.17;;;;;;;;;;5084627;28;20484;-57
2022/04/27 02:41:59;;;;;;;5.25;3.13;;;;;;;;;;5065655;28;20044;-57
2022/04/27 02:44:25;;;;;;;9.63;3.35;;;;;;;;;;5064193;28;20028;-57
2022/04/27 02:46:51;;;;;;;5.82;3.20;;;;;;;;;;5059441;28;20442;-57
2022/04/27 02:52:01;;;;;;;5.65;3.15;;;;;;;;;;5079468;28;20175;-56
2022/04/27 02:54:27;;;;;;;7.97;3.58;;;;;;;;;;5065223;28;20488;-57
2022/04/27 02:56:54;;;;;;;5.32;3.25;;;;;;;;;;5059829;28;20021;-56
2022/04/27 02:59:20;;;;;;;6.05;3.72;;;;;;;;;;5077598;28;20107;-57
2022/04/27 03:01:46;;;;;;;4.70;3.33;;;;;;;;;;5074634;28;20166;-57
2022/04/27 03:04:12;;;;;;;5.13;3.55;;;;;;;;;;5063235;28;20028;-56
2022/04/27 03:06:38;;;;;;;6.30;4.03;;;;;;;;;;5051682;28;20056;-55
2022/04/27 03:09:04;;;;;;;7.22;3.88;;;;;;;;;;5080361;28;20035;-57
2022/04/27 03:11:30;;;;;;;5.90;3.72;;;;;;;;;;5081776;28;20507;-57
2022/04/27 03:13:56;;;;;;;5.72;3.50;;;;;;;;;;5077048;28;20020;-57
2022/04/27 03:16:22;;;;;;;7.25;3.70;;;;;;;;;;5060585;28;20036;-57
2022/04/27 03:18:48;;;;;;;6.20;3.38;;;;;;;;;;5078300;28;20019;-57
2022/04/27 03:21:14;;;;;;;7.93;3.67;;;;;;;;;;5086104;28;20491;-57
2022/04/27 03:23:40;;;;;;;5.70;3.47;;;;;;;;;;5071125;28;20032;-57
2022/04/27 03:26:07;;;;;;;4.57;3.15;;;;;;;;;;5089563;28;20044;-57
2022/04/27 03:28:33;;;;;;;5.95;3.70;;;;;;;;;;5089796;28;20050;-57
2022/04/27 03:30:59;;;;;;;6.10;3.55;;;;;;;;;;5072480;28;20028;-57
2022/04/27 03:33:25;;;;;;;9.35;4.55;;;;;;;;;;5076198;28;20203;-57
2022/04/27 03:35:52;;;;;;;7.00;4.20;;;;;;;;;;5066568;28;20029;-55
2022/04/27 03:38:18;;;;;;;6.95;3.83;;;;;;;;;;5069548;28;20036;-57
2022/04/27 03:40:47;;;;;;;6.20;3.97;;;;;;;;;;5073301;28;20459;-57
2022/04/27 03:43:14;;;;;;;7.00;3.90;;;;;;;;;;5069005;28;20475;-57
2022/04/27 03:45:40;;;;;;;6.13;3.53;;;;;;;;;;5057915;28;20033;-57
2022/04/27 03:48:06;;;;;;;6.47;4.05;;;;;;;;;;5075878;28;20036;-57
2022/04/27 03:50:33;;;;;;;6.30;3.80;;;;;;;;;;5078312;28;20069;-57
2022/04/27 03:52:59;;;;;;;7.15;4.30;;;;;;;;;;5073928;28;20024;-56
2022/04/27 03:55:25;;;;;;;11.38;4.90;;;;;;;;;;5065061;28;20021;-56
2022/04/27 03:57:51;;;;;;;6.03;4.35;;;;;;;;;;5068811;28;20028;-56
2022/04/27 04:00:17;;;;;;;6.18;3.88;;;;;;;;;;5077971;28;20960;-56
2022/04/27 04:02:43;;;;;;;7.75;3.53;;;;;;;;;;5064036;28;20036;-56
2022/04/27 04:05:09;;;;;;;5.85;3.78;;;;;;;;;;5061221;28;20033;-55
2022/04/27 04:07:35;;;;;;;7.80;4.50;;;;;;;;;;5073514;28;20114;-56
2022/04/27 04:10:02;;;;;;;8.25;4.13;;;;;;;;;;5069163;28;20465;-57
2022/04/27 04:12:28;;;;;;;11.57;4.25;;;;;;;;;;5061887;28;20028;-57
2022/04/27 04:14:54;;;;;;;6.18;3.88;;;;;;;;;;5069127;28;20020;-57
2022/04/27 04:17:20;;;;;;;5.70;3.97;;;;;;;;;;5081157;28;20025;-57
2022/04/27 04:19:46;;;;;;;7.22;4.50;;;;;;;;;;5060516;28;20099;-56
2022/04/27 04:22:13;;;;;;;6.05;4.18;;;;;;;;;;5064726;28;20033;-57
2022/04/27 04:28:29;;;;;;;7.68;4.47;;;;;;;;;;5059391;28;20075;-56
2022/04/27 04:30:10;;;;;;;9.38;4.22;;;;;;;;;;5080710;28;20106;-57
2022/04/27 04:32:40;;;;;;;9.65;4.68;;;;;;;;;;5069615;28;20064;-57
2022/04/27 04:35:06;;;;;;;8.20;4.50;;;;;;;;;;5057782;28;20032;-57
2022/04/27 04:37:32;;;;;;;6.95;4.55;;;;;;;;;;5076533;28;20028;-56
2022/04/27 04:39:58;;;;;;;11.60;4.57;;;;;;;;;;5068742;28;20040;-56
2022/04/27 04:42:24;;;;;;;8.75;3.78;;;;;;;;;;5074444;28;20408;-57
2022/04/27 04:44:50;;;;;;;9.52;4.78;;;;;;;;;;5050625;28;20099;-57
2022/04/27 04:47:17;;;;;;;6.18;3.70;;;;;;;;;;5063426;28;20033;-57
2022/04/27 04:49:43;;;;;;;6.82;4.40;;;;;;;;;;5062772;28;20033;-57
2022/04/27 04:52:09;;;;;;;8.05;4.28;;;;;;;;;;5057095;28;20454;-57
2022/04/27 04:54:35;;;;;;;9.93;4.32;;;;;;;;;;5078724;28;20029;-56
2022/04/27 04:57:01;;;;;;;8.68;4.20;;;;;;;;;;5055749;28;20029;-57
2022/04/27 04:59:27;;;;;;;8.10;4.60;;;;;;;;;;5042651;28;20039;-57
2022/04/27 05:01:53;;;;;;;9.18;4.22;;;;;;;;;;5051366;28;20029;-54
2022/04/27 05:04:19;;;;;;;10.15;4.40;;;;;;;;;;5070784;28;20075;-57
2022/04/27 05:06:47;;;;;;;8.65;4.30;;;;;;;;;;5067873;28;20021;-56
2022/04/27 05:09:13;;;;;;;6.80;4.20;;;;;;;;;;5060430;28;20032;-57
2022/04/27 05:11:39;;;;;;;6.03;4.20;;;;;;;;;;5062694;28;20025;-57
2022/04/27 05:14:05;;;;;;;7.57;3.95;;;;;;;;;;5053896;28;20028;-57
2022/04/27 05:16:32;;;;;;;7.28;4.95;;;;;;;;;;5057182;28;20024;-57
2022/04/27 05:18:58;;;;;;;8.15;4.07;;;;;;;;;;5041216;28;20168;-53
2022/04/27 05:21:25;;;;;;;7.07;3.78;;;;;;;;;;5045365;28;20548;-56
2022/04/27 05:23:50;;;;;;;6.05;3.60;;;;;;;;;;5045705;28;20341;-57
2022/04/27 05:26:16;;;;;;;8.70;4.55;;;;;;;;;;5063869;28;20050;-57
2022/04/27 05:34:12;;;;;;;9.40;5.55;;;;;;;;;;5061841;28;20467;-56
2022/04/27 05:36:38;;;;;;;9.82;5.38;;;;;;;;;;5064636;28;20021;-56
2022/04/27 05:39:04;;;;;;;8.90;4.35;;;;;;;;;;5065715;28;20032;-54
2022/04/27 05:41:30;;;;;;;13.50;5.88;;;;;;;;;;5074568;28;20107;-56
2022/04/27 05:43:56;;;;;;;10.68;5.68;;;;;;;;;;5067765;28;20033;-54
2022/04/27 05:46:22;;;;;;;10.57;5.88;;;;;;;;;;5067372;28;20081;-57
2022/04/27 05:48:48;;;;;;;10.27;5.53;;;;;;;;;;5054899;28;20041;-55
2022/04/27 05:51:13;;;;;;;13.30;5.97;;;;;;;;;;5068180;28;20046;-56
2022/04/27 05:53:42;;;;;;;12.10;5.47;;;;;;;;;;5075996;28;20021;-55
2022/04/27 05:56:09;;;;;;;10.60;6.47;;;;;;;;;;5068810;28;20066;-57
2022/04/27 05:58:35;;;;;;;10.52;5.65;;;;;;;;;;5055948;28;20035;-57
2022/04/27 06:01:01;;;;;;;10.35;5.72;;;;;;;;;;5065705;28;20025;-55
2022/04/27 06:03:27;;;;;;;10.25;5.97;;;;;;;;;;5067871;28;20037;-57
2022/04/27 06:05:53;;;;;;;11.13;5.00;;;;;;;;;;5075963;28;20090;-57
2022/04/27 06:08:18;;;;;;;12.55;6.13;;;;;;;;;;5086021;28;20028;-57
2022/04/27 06:10:44;;;;;;;11.18;5.88;;;;;;;;;;5071354;28;20032;-57
2022/04/27 06:13:11;;;;;;;8.65;5.75;;;;;;;;;;5064398;28;20032;-56
2022/04/27 06:15:37;;;;;;;11.27;6.13;;;;;;;;;;5062365;28;20425;-57
2022/04/27 06:18:03;;;;;;;12.50;5.35;;;;;;;;;;5055222;28;20025;-57
2022/04/27 06:20:29;;;;;;;10.20;5.03;;;;;;;;;;5075675;28;20073;-57
2022/04/27 06:22:57;;;;;;;9.05;5.57;;;;;;;;;;5084526;28;20078;-57
2022/04/27 06:25:25;;;;;;;12.32;5.22;;;;;;;;;;5087523;28;20025;-57
2022/04/27 06:27:51;;;;;;;11.63;5.70;;;;;;;;;;5063289;28;20127;-57
2022/04/27 06:30:17;;;;;;;12.02;5.45;;;;;;;;;;5074010;28;20024;-57
2022/04/27 06:32:43;;;;;;;13.60;5.25;;;;;;;;;;5078691;28;20032;-56
2022/04/27 06:35:12;;;;;;;9.73;5.93;;;;;;;;;;5071465;28;20132;-56
2022/04/27 06:37:38;;;;;;;10.32;5.13;;;;;;;;;;5060499;28;20085;-55
2022/04/27 06:40:05;;;;;;;12.40;5.20;;;;;;;;;;5056767;28;20108;-55
2022/04/27 06:42:31;;;;;;;10.20;5.07;;;;;;;;;;5060602;28;20118;-57
2022/04/27 06:45:00;;;;;;;10.95;5.63;;;;;;;;;;5091814;28;20023;-54
2022/04/27 06:47:26;;;;;;;10.45;5.50;;;;;;;;;;5083353;28;20377;-57
2022/04/27 06:49:52;;;;;;;12.02;5.85;;;;;;;;;;5062462;28;20043;-55
2022/04/27 06:52:17;;;;;;;12.32;5.85;;;;;;;;;;5061443;28;20041;-55
2022/04/27 06:54:43;;;;;;;9.30;5.32;;;;;;;;;;5068921;28;20259;-57
2022/04/27 06:57:10;;;;;;;9.48;4.97;;;;;;;;;;5061738;28;20665;-57
2022/04/27 06:59:36;;;;;;;6.97;4.68;;;;;;;;;;5065549;28;20602;-56
2022/04/27 07:02:03;;;;;;;11.88;4.93;;;;;;;;;;5072623;28;20040;-56
2022/04/27 07:04:31;;;;;;;9.55;5.13;;;;;;;;;;5070758;28;20073;-57
2022/04/27 07:06:57;;;;;;;11.52;4.97;;;;;;;;;;5072475;28;20068;-55
2022/04/27 07:09:23;;;;;;;10.45;4.70;;;;;;;;;;5078987;28;20046;-57
2022/04/27 07:11:49;;;;;;;7.57;4.53;;;;;;;;;;5074325;28;20063;-57
2022/04/27 07:14:16;;;;;;;8.30;4.97;;;;;;;;;;5074100;28;20032;-55
2022/04/27 07:16:45;;;;;;;10.68;5.32;;;;;;;;;;5068690;28;20027;-57
2022/04/27 07:19:11;;;;;;;9.00;4.30;;;;;;;;;;5079882;28;20114;-57
2022/04/27 07:21:37;;;;;;;7.55;4.53;;;;;;;;;;5068474;28;20085;-57
2022/04/27 07:24:03;;;;;;;8.48;4.78;;;;;;;;;;5064389;28;20036;-57
2022/04/27 07:26:29;;;;;;;6.65;4.60;;;;;;;;;;5075517;28;20044;-58
2022/04/27 07:28:55;;;;;;;8.77;5.15;;;;;;;;;;5090012;28;20085;-54
2022/04/27 07:31:22;;;;;;;8.25;4.85;;;;;;;;;;5059069;28;20138;-56
2022/04/27 07:33:48;;;;;;;7.80;4.53;;;;;;;;;;5062733;28;20396;-57
2022/04/27 07:36:14;;;;;;;7.72;4.28;;;;;;;;;;5058981;28;20082;-57
2022/04/27 07:38:40;;;;;;;9.95;5.15;;;;;;;;;;5091388;28;20028;-57
2022/04/27 07:41:06;;;;;;;8.05;4.93;;;;;;;;;;5072753;28;20040;-58
2022/04/27 07:43:32;;;;;;;13.00;4.18;;;;;;;;;;5063918;28;20033;-57
2022/04/27 07:45:58;;;;;;;8.13;4.07;;;;;;;;;;5054262;28;20047;-56
2022/04/27 07:48:24;;;;;;;7.43;4.43;;;;;;;;;;5056229;28;20028;-58
2022/04/27 07:50:50;;;;;;;7.63;4.22;;;;;;;;;;5085515;28;20112;-58
2022/04/27 07:53:17;;;;;;;8.18;4.85;;;;;;;;;;5081564;28;20031;-57
2022/04/27 07:55:43;;;;;;;8.57;4.25;;;;;;;;;;5080860;28;20024;-57
2022/04/27 07:58:09;;;;;;;11.40;4.10;;;;;;;;;;5091329;28;20027;-57
2022/04/27 08:00:35;;;;;;;8.38;4.00;;;;;;;;;;5090537;28;20020;-57
2022/04/27 08:03:01;;;;;;;7.53;4.22;;;;;;;;;;5071268;28;20095;-56
2022/04/27 08:05:27;;;;;;;7.13;3.78;;;;;;;;;;5065607;28;20138;-57
2022/04/27 08:07:53;;;;;;;6.72;4.38;;;;;;;;;;5071669;28;20099;-57
2022/04/27 08:10:20;;;;;;;7.68;4.22;;;;;;;;;;5084632;28;20495;-57
2022/04/27 08:12:47;;;;;;;6.57;4.00;;;;;;;;;;5076825;28;20021;-57
2022/04/27 08:15:17;;;;;;;7.50;3.75;;;;;;;;;;5085919;28;20055;-57
2022/04/27 08:18:01;;;;;;;5.22;2.85;;;;;;;;;;5090918;28;20404;-55
2022/04/27 08:23:14;;;;;;;4.63;3.10;;;;;;;;;;5063744;28;20187;-57
2022/04/27 08:25:41;;;;;;;5.13;3.03;;;;;;;;;;5090702;28;20425;-57
2022/04/27 08:28:07;;;;;;;3.90;2.40;;;;;;;;;;5076537;28;20058;-56
2022/04/27 08:30:34;;;;;;;6.38;2.42;;;;;;;;;;5089464;28;20463;-55
2022/04/27 08:33:00;;;;;;;3.65;2.28;;;;;;;;;;5074887;28;20023;-57
2022/04/27 08:35:29;;;;;;;7.78;3.03;;;;;;;;;;5089417;28;20479;-56
2022/04/27 08:37:55;;;;;;;5.90;2.80;;;;;;;;;;5077223;28;20082;-55
2022/04/27 08:40:22;;;;;;;5.38;3.00;;;;;;;;;;5078654;28;20485;-57
2022/04/27 08:42:49;;;;;;;12.70;3.35;;;;;;;;;;5071905;28;20020;-56
2022/04/27 08:45:16;;;;;;;3.08;2.13;;;;;;;;;;5073959;28;20047;-56
2022/04/27 08:47:43;;;;;;;4.10;2.55;;;;;;;;;;5064526;28;20061;-56
2022/04/27 08:50:16;;;;;;;6.68;2.78;;;;;;;;;;5073936;28;20024;-57
2022/04/27 08:52:43;;;;;;;7.43;3.00;;;;;;;;;;5080307;28;20506;-57
2022/04/27 08:55:09;;;;;;;6.47;2.53;;;;;;;;;;5064455;28;20112;-56
2022/04/27 08:57:35;;;;;;;3.58;1.85;;;;;;;;;;5071455;28;20024;-57
2022/04/27 09:00:02;;;;;;;3.15;1.95;;;;;;;;;;5087850;28;20028;-57
2022/04/27 09:02:28;;;;;;;2.83;1.42;;;;;;;;;;5068373;28;20353;-58
2022/04/27 09:05:07;;;;;;;2.60;1.40;;;;;;;;;;5082013;28;20062;-58
2022/04/27 09:07:40;;;;;;;6.63;1.60;;;;;;;;;;5085238;28;20020;-57
2022/04/27 09:10:10;;;;;;;3.78;2.40;;;;;;;;;;5068723;28;20028;-57
2022/04/27 09:12:38;;;;;;;3.15;2.03;;;;;;;;;;5081189;28;20061;-58
2022/04/27 09:15:06;;;;;;;4.57;2.20;;;;;;;;;;5078533;28;20087;-58
2022/04/27 09:23:02;;;;;;;3.83;1.80;;;;;;;;;;5063100;28;20086;-58
2022/04/27 09:25:36;;;;;;;6.60;2.30;;;;;;;;;;5092628;28;20484;-57
2022/04/27 09:28:05;;;;;;;4.95;1.75;;;;;;;;;;5067403;28;20631;-58
2022/04/27 09:30:32;;;;;;;4.63;2.15;;;;;;;;;;5063926;28;20032;-55
2022/04/27 09:32:58;;;;;;;2.50;1.80;;;;;;;;;;5070724;28;20502;-56
2022/04/27 09:35:32;;;;;;;3.20;1.60;;;;;;;;;;5078188;28;20399;-57
2022/04/27 09:38:11;;;;;;;3.03;1.65;;;;;;;;;;5071108;28;20107;-58
2022/04/27 09:40:44;;;;;;;2.78;1.30;;;;;;;;;;5073367;28;20032;-57
2022/04/27 09:43:13;;;;;;;2.40;1.05;;;;;;;;;;5075378;28;20081;-58
2022/04/27 09:45:39;;;;;;;1.88;1.30;;;;;;;;;;5061834;28;20029;-57
2022/04/27 09:48:05;;;;;;;2.70;1.17;;;;;;;;;;5071198;28;20031;-57
2022/04/27 09:50:51;;;;;;;2.25;1.08;;;;;;;;;;5069623;28;20021;-58
2022/04/27 09:53:18;;;;;;;2.10;1.10;;;;;;;;;;5071809;28;20035;-58
2022/04/27 09:55:48;;;;;;;1.55;1.10;;;;;;;;;;5065442;28;20053;-57
2022/04/27 09:58:16;;;;;;;2.47;1.35;;;;;;;;;;5076769;28;20111;-58
2022/04/27 10:00:42;;;;;;;2.65;0.88;;;;;;;;;;5062838;28;20082;-56
2022/04/27 10:03:10;;;;;;;1.55;0.98;;;;;;;;;;5064100;28;20033;-57
2022/04/27 10:05:36;;;;;;;2.28;1.13;;;;;;;;;;5082194;28;20030;-57
2022/04/27 10:08:03;;;;;;;6.13;1.17;;;;;;;;;;5071075;28;20029;-57
2022/04/27 10:10:31;;;;;;;1.52;0.98;;;;;;;;;;5067784;28;20041;-57
2022/04/27 10:12:58;;;;;;;2.15;1.10;;;;;;;;;;5060362;28;20024;-54
2022/04/27 10:15:25;;;;;;;1.90;0.98;;;;;;;;;;5062848;28;20028;-56
2022/04/27 10:17:51;;;;;;;4.43;1.30;;;;;;;;;;5063526;28;20033;-57
2022/04/27 10:20:26;;;;;;;10.98;1.35;;;;;;;;;;5067731;28;20025;-57
2022/04/27 10:22:52;;;;;;;1.88;1.05;;;;;;;;;;5075789;28;20064;-57
2022/04/27 10:25:19;;;;;;;2.08;1.30;;;;;;;;;;5067760;28;20058;-57
2022/04/27 10:27:45;;;;;;;2.80;1.35;;;;;;;;;;5079229;28;20020;-57
2022/04/27 10:30:12;;;;;;;2.83;1.05;;;;;;;;;;5073225;28;20107;-58
2022/04/27 10:32:42;;;;;;;2.10;1.13;;;;;;;;;;5078220;28;20032;-57
2022/04/27 10:35:14;;;;;;;2.03;0.95;;;;;;;;;;5064191;28;20021;-57
2022/04/27 10:37:47;;;;;;;1.35;1.00;;;;;;;;;;5065743;28;20047;-57
2022/04/27 10:40:25;;;;;;;1.77;1.08;;;;;;;;;;5067623;28;20108;-58
2022/04/27 10:42:51;;;;;;;2.20;1.02;;;;;;;;;;5053874;28;20123;-58
2022/04/27 10:45:23;;;;;;;3.42;1.02;;;;;;;;;;5070023;28;20059;-57
2022/04/27 10:47:50;;;;;;;2.72;1.38;;;;;;;;;;5079420;28;20026;-57
2022/04/27 10:50:16;;;;;;;2.28;1.30;;;;;;;;;;5068149;28;20656;-58
2022/04/27 10:52:43;;;;;;;1.52;0.90;;;;;;;;;;5067800;28;20035;-57
2022/04/27 10:55:28;;;;;;;1.52;0.93;;;;;;;;;;5046753;28;20024;-56
2022/04/27 10:58:13;;;;;;;1.83;1.00;;;;;;;;;;5041215;28;20755;-53
2022/04/27 11:00:58;;;;;;;2.67;1.00;;;;;;;;;;5054445;28;20085;-53
2022/04/27 11:03:25;;;;;;;3.47;0.90;;;;;;;;;;5046764;28;20032;-56
2022/04/27 11:05:52;;;;;;;1.77;0.80;;;;;;;;;;5060582;28;20047;-58
2022/04/27 11:08:26;;;;;;;1.05;0.80;;;;;;;;;;5061246;28;22033;-56
2022/04/27 11:10:55;;;;;;;2.17;1.15;;;;;;;;;;5052812;28;20028;-57
2022/04/27 11:13:26;;;;;;;1.35;0.82;;;;;;;;;;5054614;28;20090;-57
2022/04/27 11:15:53;;;;;;;2.60;0.93;;;;;;;;;;5050611;28;20041;-58
2022/04/27 11:18:19;;;;;;;1.23;0.80;;;;;;;;;;5059253;28;20033;-54
2022/04/27 11:20:45;;;;;;;1.95;0.93;;;;;;;;;;5075085;28;20383;-58
2022/04/27 11:23:21;;;;;;;1.50;0.80;;;;;;;;;;5060172;28;20025;-57
2022/04/27 11:25:52;;;;;;;2.58;0.80;;;;;;;;;;5060184;28;20033;-57
2022/04/27 11:28:18;;;;;;;1.42;0.90;;;;;;;;;;5065388;28;20028;-57
2022/04/27 11:30:44;;;;;;;3.90;1.20;;;;;;;;;;5073082;28;20422;-58
2022/04/27 11:33:11;;;;;;;1.65;1.05;;;;;;;;;;5065271;28;20108;-57
2022/04/27 11:35:41;;;;;;;1.73;1.10;;;;;;;;;;5055112;28;20013;-57
2022/04/27 11:38:08;;;;;;;3.13;1.00;;;;;;;;;;5062735;28;20075;-57
2022/04/27 11:40:36;;;;;;;2.70;1.20;;;;;;;;;;5061085;28;20032;-52
2022/04/27 11:43:04;;;;;;;3.47;1.00;;;;;;;;;;5062040;28;20037;-57
2022/04/27 11:45:30;;;;;;;2.03;1.17;;;;;;;;;;5065948;28;20024;-58
2022/04/27 11:48:00;;;;;;;1.60;1.00;;;;;;;;;;5073244;28;20028;-58
2022/04/27 11:50:27;;;;;;;3.20;0.93;;;;;;;;;;5060016;28;20480;-56
2022/04/27 11:52:59;;;;;;;1.65;0.90;;;;;;;;;;5067230;28;20048;-59
2022/04/27 11:55:26;;;;;;;2.15;1.05;;;;;;;;;;5062383;28;20473;-58
2022/04/27 11:57:52;;;;;;;1.35;0.85;;;;;;;;;;5059695;28;20020;-57
2022/04/27 12:00:21;;;;;;;1.77;1.00;;;;;;;;;;5069088;28;20036;-58
2022/04/27 12:02:48;;;;;;;2.30;1.00;;;;;;;;;;5067930;28;20028;-55
2022/04/27 12:05:17;;;;;;;3.63;1.17;;;;;;;;;;5060862;28;20037;-57
2022/04/27 12:07:49;;;;;;;1.50;1.00;;;;;;;;;;5059771;28;20049;-57
2022/04/27 12:10:15;;;;;;;1.23;0.80;;;;;;;;;;5044513;28;20070;-58
2022/04/27 12:12:41;;;;;;;1.33;1.00;;;;;;;;;;5058368;28;20029;-54
2022/04/27 12:15:09;;;;;;;3.05;1.27;;;;;;;;;;5068700;28;20434;-56
2022/04/27 12:17:48;;;;;;;1.75;1.35;;;;;;;;;;5073497;28;20020;-57
2022/04/27 12:20:25;;;;;;;4.68;1.27;;;;;;;;;;5079127;28;20020;-57
2022/04/27 12:22:52;;;;;;;2.08;1.42;;;;;;;;;;5053148;28;20477;-56
2022/04/27 12:25:18;;;;;;;1.77;0.80;;;;;;;;;;5055552;28;20109;-57
2022/04/27 12:27:44;;;;;;;1.98;1.13;;;;;;;;;;5056292;28;20021;-58
2022/04/27 12:30:10;;;;;;;3.85;1.15;;;;;;;;;;5061357;28;20040;-57
2022/04/27 12:32:37;;;;;;;4.55;1.77;;;;;;;;;;5073553;28;20036;-57
2022/04/27 12:37:51;;;;;;;2.90;1.30;;;;;;;;;;5068483;28;20399;-58
2022/04/27 12:40:17;;;;;;;5.32;1.90;;;;;;;;;;5067675;28;20033;-57
2022/04/27 12:43:02;;;;;;;6.18;1.38;;;;;;;;;;5041114;28;20039;-57
2022/04/27 12:45:29;;;;;;;1.58;0.73;;;;;;;;;;5063595;28;20112;-57
2022/04/27 12:47:55;;;;;;;2.50;1.00;;;;;;;;;;5070474;28;20021;-58
2022/04/27 12:50:21;;;;;;;4.28;1.38;;;;;;;;;;5065943;28;20519;-54
2022/04/27 12:52:47;;;;;;;3.45;1.77;;;;;;;;;;5069253;28;20047;-57
2022/04/27 12:55:14;;;;;;;3.58;1.30;;;;;;;;;;5071902;28;20078;-58
2022/04/27 12:57:53;;;;;;;1.80;0.93;;;;;;;;;;5090622;28;20016;-57
2022/04/27 13:00:38;;;;;;;3.17;1.58;;;;;;;;;;5065761;28;20064;-57
2022/04/27 13:03:05;;;;;;;2.20;1.35;;;;;;;;;;5057674;28;20100;-57
2022/04/27 13:05:31;;;;;;;6.45;1.10;;;;;;;;;;5082253;28;20017;-57
2022/04/27 13:07:57;;;;;;;1.58;1.30;;;;;;;;;;5068615;28;20416;-57
2022/04/27 13:13:08;;;;;;;2.15;1.23;;;;;;;;;;5077223;28;20043;-56
2022/04/27 13:15:34;;;;;;;1.90;1.25;;;;;;;;;;5077340;28;20048;-57
2022/04/27 13:18:00;;;;;;;2.88;1.30;;;;;;;;;;5078880;28;20023;-57
2022/04/27 13:20:26;;;;;;;4.13;1.52;;;;;;;;;;5077501;28;20095;-56
2022/04/27 13:22:52;;;;;;;2.13;1.35;;;;;;;;;;5065359;28;20079;-57
2022/04/27 13:25:18;;;;;;;3.35;1.30;;;;;;;;;;5075628;28;20044;-57
2022/04/27 13:27:44;;;;;;;9.80;1.52;;;;;;;;;;5065221;28;20024;-58
2022/04/27 13:30:10;;;;;;;1.92;1.10;;;;;;;;;;5075574;28;20158;-57
2022/04/27 13:32:37;;;;;;;3.65;1.15;;;;;;;;;;5066239;28;20507;-57
2022/04/27 13:35:03;;;;;;;2.15;1.10;;;;;;;;;;5069823;28;20031;-58
2022/04/27 13:37:29;;;;;;;3.30;1.88;;;;;;;;;;5068010;28;20118;-57
2022/04/27 13:39:56;;;;;;;2.60;1.00;;;;;;;;;;5082216;28;20099;-58
2022/04/27 13:42:22;;;;;;;2.63;0.90;;;;;;;;;;5073589;28;20035;-55
2022/04/27 13:44:48;;;;;;;2.30;1.17;;;;;;;;;;5061599;28;20115;-56
2022/04/27 13:47:14;;;;;;;2.25;1.30;;;;;;;;;;5061542;28;20444;-58
2022/04/27 13:49:41;;;;;;;1.77;1.30;;;;;;;;;;5067229;28;20031;-55
2022/04/27 13:52:07;;;;;;;1.98;1.25;;;;;;;;;;5065761;28;20075;-57
2022/04/27 13:54:33;;;;;;;2.63;1.38;;;;;;;;;;5059480;28;20029;-57
2022/04/27 13:56:59;;;;;;;1.88;1.30;;;;;;;;;;5069128;28;20025;-55
2022/04/27 13:59:25;;;;;;;3.83;1.20;;;;;;;;;;5064531;28;20028;-57
2022/04/27 14:01:51;;;;;;;3.33;1.30;;;;;;;;;;5066513;28;20032;-58
2022/04/27 14:04:17;;;;;;;2.35;1.40;;;;;;;;;;5083134;28;20027;-56
2022/04/27 14:06:45;;;;;;;3.08;1.00;;;;;;;;;;5077273;28;20032;-55
2022/04/27 14:09:11;;;;;;;1.63;1.17;;;;;;;;;;5056291;28;20107;-55
2022/04/27 14:14:29;;;;;;;1.60;0.90;;;;;;;;;;5035940;28;20033;-55
2022/04/27 14:19:40;;;;;;;1.42;0.80;;;;;;;;;;5069570;28;20091;-55
2022/04/27 14:22:07;;;;;;;2.60;0.80;;;;;;;;;;5053554;28;20033;-53
2022/04/27 14:24:33;;;;;;;3.25;0.88;;;;;;;;;;5060323;28;20033;-54
2022/04/27 14:26:59;;;;;;;2.58;0.80;;;;;;;;;;5067760;28;20059;-54
2022/04/27 14:29:25;;;;;;;1.77;1.00;;;;;;;;;;5070269;28;20060;-58
2022/04/27 14:31:51;;;;;;;2.35;1.00;;;;;;;;;;5061039;28;20040;-58
2022/04/27 14:34:16;;;;;;;0.88;0.73;;;;;;;;;;5061171;28;20090;-58
2022/04/27 14:36:42;;;;;;;1.80;0.75;;;;;;;;;;5064508;28;20037;-57
2022/04/27 14:39:08;;;;;;;1.58;0.98;;;;;;;;;;5068120;28;20387;-57
2022/04/27 14:41:35;;;;;;;3.63;1.20;;;;;;;;;;5066631;28;20036;-58
2022/04/27 14:44:01;;;;;;;1.98;0.90;;;;;;;;;;5063039;28;20028;-57
2022/04/27 14:46:27;;;;;;;2.30;1.13;;;;;;;;;;5059682;28;20041;-58
2022/04/27 14:48:53;;;;;;;1.65;0.98;;;;;;;;;;5069296;28;20035;-56
2022/04/27 14:51:19;;;;;;;1.35;0.90;;;;;;;;;;5028404;28;974446;-57
2022/04/27 14:53:45;;;;;;;1.45;0.90;;;;;;;;;;5084848;28;20226;-56
2022/04/27 14:56:12;;;;;;;2.97;1.50;;;;;;;;;;5056550;28;20036;-57
2022/04/27 14:58:38;;;;;;;1.70;0.95;;;;;;;;;;5087743;28;20109;-57
2022/04/27 15:01:04;;;;;;;1.52;0.80;;;;;;;;;;5072401;28;20492;-57
2022/04/27 15:03:30;;;;;;;2.25;0.95;;;;;;;;;;5071831;28;20044;-57
2022/04/27 15:05:56;;;;;;;2.17;1.20;;;;;;;;;;5064747;28;20084;-56
2022/04/27 15:08:22;;;;;;;2.75;0.85;;;;;;;;;;5069354;28;20377;-58
2022/04/27 15:10:48;;;;;;;1.50;1.00;;;;;;;;;;5068608;28;20047;-58
2022/04/27 15:13:14;;;;;;;2.67;1.08;;;;;;;;;;5053905;28;20447;-56